Time;durP1;ratioP1;P1;durP2;ratioP2;P2;SDS_P1;SDS_P2;PMS_P1;PMS_P2;Temp;Humidity;BMP_temperature;BMP_pressure;BME280_temperature;BME280_humidity;BME280_pressure;Samples;Min_cycle;Max_cycle;Signal;HPM_P1;HPM_P2
2021/12/30 00:01:07;;;;;;;19.27;14.13;;;7.10;93.00;;;;;;4842778;29;20034;-67
2021/12/30 00:03:33;;;;;;;18.45;13.50;;;7.20;92.90;;;;;;4842305;29;20030;-68
2021/12/30 00:05:59;;;;;;;17.17;12.63;;;7.20;92.90;;;;;;4842056;29;20048;-68
2021/12/30 00:08:25;;;;;;;18.40;12.77;;;7.30;92.80;;;;;;4842303;29;20535;-68
2021/12/30 00:10:52;;;;;;;16.87;12.63;;;7.30;92.70;;;;;;4856385;29;20459;-68
2021/12/30 00:13:18;;;;;;;17.13;12.40;;;7.40;92.60;;;;;;4842361;29;20395;-68
2021/12/30 00:15:43;;;;;;;16.60;13.20;;;7.40;92.40;;;;;;4842637;29;20493;-68
2021/12/30 00:18:10;;;;;;;18.03;13.23;;;7.50;92.30;;;;;;4842293;29;20026;-68
2021/12/30 00:20:36;;;;;;;17.70;13.10;;;7.50;92.10;;;;;;4842261;29;20112;-68
2021/12/30 00:23:04;;;;;;;19.23;12.93;;;7.50;92.00;;;;;;4842220;29;20382;-68
2021/12/30 00:25:38;;;;;;;17.13;14.23;;;7.50;92.00;;;;;;4842464;29;20041;-68
2021/12/30 00:28:09;;;;;;;19.83;14.17;;;7.50;92.10;;;;;;4842382;29;20154;-68
2021/12/30 00:30:35;;;;;;;16.83;13.00;;;7.40;92.10;;;;;;4842129;29;20033;-69
2021/12/30 00:33:01;;;;;;;18.87;13.37;;;7.40;92.10;;;;;;4840914;29;20044;-68
2021/12/30 00:35:27;;;;;;;18.77;13.93;;;7.30;92.20;;;;;;4842094;29;20052;-68
2021/12/30 00:37:52;;;;;;;18.83;14.03;;;7.40;92.30;;;;;;4842203;29;20435;-68
2021/12/30 00:40:18;;;;;;;18.87;13.83;;;7.30;92.10;;;;;;4842374;29;20030;-68
2021/12/30 00:42:44;;;;;;;16.87;13.33;;;7.30;92.00;;;;;;4842329;29;20042;-68
2021/12/30 00:45:10;;;;;;;16.47;13.67;;;7.30;92.00;;;;;;4842120;29;20073;-68
2021/12/30 00:47:35;;;;;;;18.60;13.40;;;7.40;91.90;;;;;;4842227;29;20162;-69
2021/12/30 00:50:01;;;;;;;16.23;12.73;;;7.40;91.90;;;;;;4843194;29;20514;-69
2021/12/30 00:52:27;;;;;;;16.80;12.90;;;7.30;91.70;;;;;;4845519;29;20403;-68
2021/12/30 00:54:53;;;;;;;17.60;13.33;;;7.30;91.90;;;;;;4845673;29;20113;-69
2021/12/30 00:57:19;;;;;;;18.17;13.87;;;7.30;92.00;;;;;;4845642;29;20422;-69
2021/12/30 00:59:45;;;;;;;16.13;12.70;;;7.30;92.00;;;;;;4845406;29;20061;-72
2021/12/30 01:02:11;;;;;;;18.87;13.90;;;7.30;92.00;;;;;;4845167;29;20479;-69
2021/12/30 01:04:36;;;;;;;17.87;14.20;;;7.20;91.90;;;;;;4845409;29;20113;-68
2021/12/30 01:07:02;;;;;;;20.17;13.43;;;7.20;92.00;;;;;;4845484;29;20034;-68
2021/12/30 01:09:28;;;;;;;17.20;13.77;;;7.20;92.00;;;;;;4845412;29;20158;-68
2021/12/30 01:11:55;;;;;;;17.97;14.30;;;7.20;92.10;;;;;;4845207;29;20090;-68
2021/12/30 01:14:24;;;;;;;19.00;13.43;;;7.20;92.10;;;;;;4844939;29;20026;-69
2021/12/30 01:16:55;;;;;;;23.07;14.53;;;7.20;92.20;;;;;;4845083;29;20044;-69
2021/12/30 01:19:42;;;;;;;18.67;14.33;;;7.10;92.20;;;;;;4845167;29;20387;-68
2021/12/30 01:22:14;;;;;;;17.33;13.17;;;7.10;92.20;;;;;;4844886;29;20034;-70
2021/12/30 01:24:40;;;;;;;17.63;13.38;;;7.10;92.30;;;;;;4844766;29;20117;-68
2021/12/30 01:27:06;;;;;;;16.57;12.40;;;7.20;92.30;;;;;;4844950;29;20029;-68
2021/12/30 01:29:32;;;;;;;15.97;12.77;;;7.20;92.20;;;;;;4845033;29;20382;-68
2021/12/30 01:31:58;;;;;;;17.23;13.60;;;7.20;92.20;;;;;;4844968;29;20041;-68
2021/12/30 01:34:27;;;;;;;17.73;12.67;;;7.20;92.20;;;;;;4844713;29;20033;-67
2021/12/30 01:36:53;;;;;;;17.37;13.50;;;7.20;92.20;;;;;;4844680;29;20038;-68
2021/12/30 01:39:20;;;;;;;15.27;12.43;;;7.20;92.10;;;;;;4844724;29;20467;-68
2021/12/30 01:41:46;;;;;;;19.83;13.40;;;7.10;92.40;;;;;;4844572;29;20506;-68
2021/12/30 01:44:12;;;;;;;16.73;12.50;;;7.00;92.20;;;;;;4844307;29;20026;-68
2021/12/30 01:46:41;;;;;;;16.90;12.70;;;7.10;92.30;;;;;;4844640;29;20041;-68
2021/12/30 01:49:08;;;;;;;14.57;11.93;;;7.10;92.20;;;;;;4844473;29;20073;-68
2021/12/30 01:51:33;;;;;;;17.03;11.90;;;7.10;92.10;;;;;;4844757;29;20396;-68
2021/12/30 01:53:59;;;;;;;15.73;12.17;;;7.10;92.10;;;;;;4844559;29;20030;-68
2021/12/30 01:56:25;;;;;;;17.83;13.13;;;7.10;91.90;;;;;;4844591;29;20026;-68
2021/12/30 01:58:53;;;;;;;15.93;12.97;;;7.00;91.90;;;;;;4842336;29;20030;-68
2021/12/30 02:01:18;;;;;;;18.73;12.87;;;7.00;91.90;;;;;;4840618;29;20046;-68
2021/12/30 02:03:45;;;;;;;15.80;12.67;;;7.00;91.90;;;;;;4841708;29;20471;-68
2021/12/30 02:06:11;;;;;;;15.93;12.83;;;6.90;91.90;;;;;;4844258;29;20085;-68
2021/12/30 02:08:36;;;;;;;15.63;12.10;;;6.90;91.90;;;;;;4844365;29;20037;-68
2021/12/30 02:11:02;;;;;;;16.63;12.67;;;6.80;92.10;;;;;;4844090;29;20032;-69
2021/12/30 02:13:28;;;;;;;15.53;12.37;;;6.90;92.20;;;;;;4843835;29;20030;-68
2021/12/30 02:16:00;;;;;;;15.27;12.87;;;6.90;92.30;;;;;;4844053;29;20101;-68
2021/12/30 02:18:26;;;;;;;14.63;11.52;;;6.90;92.20;;;;;;4844050;29;20033;-68
2021/12/30 02:20:57;;;;;;;15.47;12.47;;;6.90;92.30;;;;;;4843547;29;20022;-68
2021/12/30 02:23:24;;;;;;;15.17;12.13;;;6.90;92.40;;;;;;4843403;29;20034;-68
2021/12/30 02:25:52;;;;;;;15.97;12.13;;;6.90;92.30;;;;;;4843508;29;20113;-68
2021/12/30 02:28:23;;;;;;;14.83;11.67;;;6.90;92.20;;;;;;4843497;29;20398;-68
2021/12/30 02:30:50;;;;;;;20.80;11.40;;;6.90;92.10;;;;;;4843831;29;20178;-68
2021/12/30 02:33:16;;;;;;;15.50;10.90;;;6.80;92.10;;;;;;4843449;29;20030;-68
2021/12/30 02:35:42;;;;;;;15.03;10.13;;;6.80;92.20;;;;;;4843175;29;20033;-68
2021/12/30 02:38:09;;;;;;;16.53;11.40;;;6.90;92.20;;;;;;4843778;29;20032;-68
2021/12/30 02:40:40;;;;;;;14.33;10.60;;;6.90;92.10;;;;;;4843755;29;20026;-68
2021/12/30 02:43:10;;;;;;;15.80;10.77;;;6.80;91.80;;;;;;4843406;29;20036;-68
2021/12/30 02:45:36;;;;;;;11.93;9.33;;;6.80;91.90;;;;;;4843412;29;20090;-68
2021/12/30 02:48:02;;;;;;;11.87;9.57;;;6.80;92.00;;;;;;4843433;29;20026;-68
2021/12/30 02:50:29;;;;;;;11.63;9.37;;;6.80;92.10;;;;;;4843267;29;20046;-67
2021/12/30 02:52:55;;;;;;;13.57;10.10;;;6.80;92.10;;;;;;4843135;29;20555;-68
2021/12/30 02:55:21;;;;;;;13.93;9.77;;;6.80;91.90;;;;;;4843196;29;20037;-68
2021/12/30 02:57:47;;;;;;;12.63;10.20;;;6.70;91.70;;;;;;4843509;29;20112;-68
2021/12/30 03:00:13;;;;;;;11.27;8.67;;;6.70;91.90;;;;;;4843657;29;20037;-68
2021/12/30 03:02:39;;;;;;;15.03;9.10;;;6.70;91.90;;;;;;4843268;29;20110;-68
2021/12/30 03:05:07;;;;;;;11.07;8.60;;;6.70;91.80;;;;;;4842932;29;20042;-68
2021/12/30 03:07:34;;;;;;;11.33;9.03;;;6.70;91.70;;;;;;4843221;29;20492;-68
2021/12/30 03:09:59;;;;;;;10.43;8.60;;;6.70;91.90;;;;;;4843050;29;20076;-68
2021/12/30 03:12:25;;;;;;;11.27;8.87;;;6.70;92.00;;;;;;4842779;29;20123;-68
2021/12/30 03:14:51;;;;;;;11.27;8.03;;;6.70;91.90;;;;;;4843107;29;20044;-68
2021/12/30 03:17:17;;;;;;;11.10;8.37;;;6.70;91.70;;;;;;4842962;29;20037;-68
2021/12/30 03:19:42;;;;;;;13.17;8.77;;;6.60;91.60;;;;;;4842526;29;20094;-68
2021/12/30 03:22:09;;;;;;;10.37;8.20;;;6.60;91.70;;;;;;4842828;29;20479;-68
2021/12/30 03:24:35;;;;;;;9.87;7.80;;;6.50;91.40;;;;;;4843003;29;20045;-68
2021/12/30 03:27:02;;;;;;;11.73;8.00;;;6.50;91.50;;;;;;4843043;29;20105;-68
2021/12/30 03:29:28;;;;;;;11.83;8.70;;;6.50;91.50;;;;;;4842814;29;20040;-68
2021/12/30 03:31:54;;;;;;;12.00;8.80;;;6.50;91.50;;;;;;4842548;29;20030;-67
2021/12/30 03:34:20;;;;;;;10.93;8.23;;;6.40;91.50;;;;;;4842673;29;20022;-68
2021/12/30 03:36:45;;;;;;;11.53;8.17;;;6.40;91.40;;;;;;4842809;29;20026;-68
2021/12/30 03:39:13;;;;;;;10.73;7.67;;;6.30;91.20;;;;;;4842836;29;20491;-68
2021/12/30 03:41:39;;;;;;;10.87;7.83;;;6.30;91.20;;;;;;4842785;29;20375;-68
2021/12/30 03:44:05;;;;;;;10.87;7.70;;;6.20;91.40;;;;;;4842351;29;20086;-68
2021/12/30 03:46:32;;;;;;;8.90;6.63;;;6.20;91.70;;;;;;4842682;29;20026;-68
2021/12/30 03:48:58;;;;;;;10.33;6.20;;;6.20;91.80;;;;;;4842374;29;20586;-68
2021/12/30 03:51:25;;;;;;;7.93;6.33;;;6.30;91.80;;;;;;4842697;29;20033;-68
2021/12/30 03:53:56;;;;;;;8.97;6.30;;;6.30;91.70;;;;;;4842590;29;20061;-68
2021/12/30 03:56:29;;;;;;;9.87;8.13;;;6.30;91.50;;;;;;4842580;29;20489;-68
2021/12/30 03:58:55;;;;;;;10.98;7.22;;;6.40;91.40;;;;;;4842711;29;20490;-68
2021/12/30 04:01:22;;;;;;;11.73;7.93;;;6.30;91.40;;;;;;4842426;29;20150;-68
2021/12/30 04:03:49;;;;;;;10.17;7.47;;;6.30;91.40;;;;;;4842221;29;20046;-68
2021/12/30 04:06:15;;;;;;;11.43;7.97;;;6.30;91.50;;;;;;4842164;29;20415;-68
2021/12/30 04:08:42;;;;;;;10.37;8.17;;;6.20;91.50;;;;;;4842381;29;20377;-68
2021/12/30 04:11:07;;;;;;;12.37;7.63;;;6.20;91.60;;;;;;4842438;29;20038;-68
2021/12/30 04:13:35;;;;;;;8.97;6.90;;;6.20;91.80;;;;;;4842206;29;20045;-68
2021/12/30 04:16:01;;;;;;;9.27;7.03;;;6.20;91.80;;;;;;4842137;29;20030;-69
2021/12/30 04:18:26;;;;;;;9.80;7.20;;;6.30;91.90;;;;;;4842313;29;20036;-69
2021/12/30 04:20:53;;;;;;;9.63;7.10;;;6.30;91.80;;;;;;4842266;29;20042;-70
2021/12/30 04:23:18;;;;;;;8.03;5.60;;;6.30;91.90;;;;;;4842240;29;20041;-69
2021/12/30 04:25:44;;;;;;;8.87;5.97;;;6.30;91.90;;;;;;4844956;29;20037;-69
2021/12/30 04:28:10;;;;;;;8.33;6.00;;;6.30;91.70;;;;;;4845984;29;20038;-69
2021/12/30 04:30:36;;;;;;;9.23;6.03;;;6.30;91.70;;;;;;4845956;29;20037;-68
2021/12/30 04:33:03;;;;;;;9.70;5.80;;;6.30;91.50;;;;;;4845760;29;20466;-68
2021/12/30 04:35:29;;;;;;;9.63;6.70;;;6.30;91.50;;;;;;4846062;29;20021;-69
2021/12/30 04:37:54;;;;;;;9.77;6.10;;;6.20;91.50;;;;;;4846077;29;20111;-69
2021/12/30 04:40:20;;;;;;;8.03;6.23;;;6.20;91.50;;;;;;4845784;29;20068;-68
2021/12/30 04:42:46;;;;;;;10.80;6.47;;;6.10;91.40;;;;;;4845581;29;20042;-68
2021/12/30 04:45:13;;;;;;;9.93;6.03;;;6.20;91.50;;;;;;4845586;29;20050;-68
2021/12/30 04:47:40;;;;;;;7.47;5.57;;;6.20;91.30;;;;;;4845720;29;20030;-68
2021/12/30 04:50:11;;;;;;;7.17;5.73;;;6.20;91.10;;;;;;4845560;29;20058;-68
2021/12/30 04:52:39;;;;;;;8.13;5.10;;;6.10;91.10;;;;;;4845532;29;20026;-68
2021/12/30 04:55:06;;;;;;;8.63;5.77;;;6.10;91.20;;;;;;4845271;29;20103;-68
2021/12/30 04:57:31;;;;;;;6.97;4.50;;;6.10;91.20;;;;;;4845505;29;20034;-68
2021/12/30 04:59:57;;;;;;;6.07;4.60;;;6.10;91.20;;;;;;4845524;29;20428;-68
2021/12/30 05:02:28;;;;;;;5.80;4.27;;;6.10;91.20;;;;;;4845354;29;20090;-68
2021/12/30 05:04:54;;;;;;;5.13;3.87;;;6.10;91.10;;;;;;4845223;29;20045;-68
2021/12/30 05:07:19;;;;;;;9.57;3.93;;;6.20;91.20;;;;;;4845161;29;20034;-68
2021/12/30 05:09:45;;;;;;;5.37;3.40;;;6.20;91.00;;;;;;4845068;29;20026;-68
2021/12/30 05:12:10;;;;;;;4.50;3.03;;;6.30;90.90;;;;;;4845270;29;20124;-68
2021/12/30 05:14:36;;;;;;;5.73;3.50;;;6.30;90.60;;;;;;4845266;29;20104;-68
2021/12/30 05:17:03;;;;;;;8.27;6.83;;;6.30;90.60;;;;;;4845144;29;20060;-68
2021/12/30 05:19:30;;;;;;;8.43;6.90;;;6.30;90.10;;;;;;4843827;29;20487;-68
2021/12/30 05:21:56;;;;;;;9.63;6.87;;;6.30;90.00;;;;;;4844808;29;20030;-68
2021/12/30 05:24:22;;;;;;;13.03;7.80;;;6.30;89.90;;;;;;4844851;29;20391;-68
2021/12/30 05:26:47;;;;;;;8.47;7.13;;;6.20;89.60;;;;;;4844997;29;20041;-68
2021/12/30 05:29:15;;;;;;;9.43;7.57;;;6.10;89.70;;;;;;4844777;29;20437;-68
2021/12/30 05:31:41;;;;;;;10.60;7.63;;;6.10;90.00;;;;;;4844904;29;20117;-68
2021/12/30 05:34:07;;;;;;;8.67;7.00;;;6.00;90.10;;;;;;4844523;29;20108;-68
2021/12/30 05:36:33;;;;;;;10.03;7.17;;;6.00;90.10;;;;;;4844610;29;20037;-68
2021/12/30 05:38:58;;;;;;;7.27;6.43;;;5.90;90.00;;;;;;4844713;29;20426;-67
2021/12/30 05:41:26;;;;;;;9.83;7.13;;;5.80;90.10;;;;;;4844806;29;20026;-68
2021/12/30 05:43:52;;;;;;;9.83;7.77;;;5.80;90.30;;;;;;4844380;29;20391;-68
2021/12/30 05:46:18;;;;;;;8.70;7.10;;;5.80;90.40;;;;;;4844545;29;20046;-68
2021/12/30 05:48:44;;;;;;;11.90;7.23;;;5.80;90.30;;;;;;4844359;29;20518;-68
2021/12/30 05:51:09;;;;;;;8.37;6.67;;;5.70;90.20;;;;;;4844440;29;20038;-68
2021/12/30 05:53:35;;;;;;;9.50;7.23;;;5.70;90.20;;;;;;4844194;29;20034;-68
2021/12/30 05:56:01;;;;;;;10.03;7.90;;;5.70;90.30;;;;;;4843198;29;20387;-68
2021/12/30 05:58:26;;;;;;;9.77;7.30;;;5.60;90.20;;;;;;4842290;29;20037;-68
2021/12/30 06:00:52;;;;;;;9.87;7.23;;;5.50;90.30;;;;;;4843323;29;20033;-68
2021/12/30 06:03:19;;;;;;;11.90;7.80;;;5.50;90.50;;;;;;4843175;29;20030;-68
2021/12/30 06:05:48;;;;;;;14.73;8.73;;;5.50;90.40;;;;;;4843125;29;20053;-68
2021/12/30 06:08:15;;;;;;;14.53;9.07;;;5.40;90.60;;;;;;4843559;29;20386;-68
2021/12/30 06:10:42;;;;;;;12.50;9.17;;;5.40;90.80;;;;;;4843770;29;20038;-68
2021/12/30 06:13:12;;;;;;;12.03;8.47;;;5.40;91.00;;;;;;4843805;29;20037;-68
2021/12/30 06:15:38;;;;;;;10.83;8.27;;;5.50;91.10;;;;;;4843845;29;20033;-68
2021/12/30 06:18:04;;;;;;;11.13;8.53;;;5.50;91.40;;;;;;4843770;29;20041;-68
2021/12/30 06:20:30;;;;;;;10.23;8.40;;;5.40;91.20;;;;;;4844851;29;20500;-68
2021/12/30 06:22:56;;;;;;;11.03;8.33;;;5.40;91.20;;;;;;4844409;29;20038;-68
2021/12/30 06:25:22;;;;;;;11.00;8.90;;;5.50;91.20;;;;;;4844323;29;20042;-68
2021/12/30 06:27:49;;;;;;;11.67;8.60;;;5.50;91.20;;;;;;4844184;29;20030;-68
2021/12/30 06:30:15;;;;;;;11.40;8.70;;;5.50;91.20;;;;;;4843869;29;20029;-68
2021/12/30 06:32:40;;;;;;;9.97;7.27;;;5.50;91.20;;;;;;4843859;29;20109;-68
2021/12/30 06:35:08;;;;;;;10.80;8.00;;;5.50;91.30;;;;;;4843811;29;20041;-68
2021/12/30 06:37:36;;;;;;;13.07;8.17;;;5.50;91.10;;;;;;4843733;29;20030;-68
2021/12/30 06:40:04;;;;;;;13.10;8.67;;;5.50;91.20;;;;;;4843907;29;20033;-68
2021/12/30 06:42:30;;;;;;;10.83;8.00;;;5.50;91.20;;;;;;4843755;29;20372;-68
2021/12/30 06:44:55;;;;;;;9.63;7.37;;;5.50;91.20;;;;;;4843633;29;20049;-68
2021/12/30 06:47:21;;;;;;;13.10;8.83;;;5.50;91.10;;;;;;4842946;29;20026;-68
2021/12/30 06:49:47;;;;;;;13.33;9.33;;;5.50;91.30;;;;;;4843221;29;20472;-68
2021/12/30 06:52:13;;;;;;;11.43;8.60;;;5.40;91.10;;;;;;4843431;29;20030;-68
2021/12/30 06:54:39;;;;;;;14.73;9.13;;;5.40;91.30;;;;;;4843507;29;20029;-69
2021/12/30 06:57:06;;;;;;;13.90;9.50;;;5.40;91.30;;;;;;4843386;29;20392;-69
2021/12/30 06:59:32;;;;;;;12.80;9.43;;;5.40;91.40;;;;;;4843509;29;20425;-69
2021/12/30 07:01:58;;;;;;;13.37;10.50;;;5.40;91.50;;;;;;4843332;29;20040;-70
2021/12/30 07:04:25;;;;;;;14.73;10.87;;;5.40;91.60;;;;;;4842905;29;20396;-70
2021/12/30 07:06:52;;;;;;;16.83;10.60;;;5.40;91.50;;;;;;4843086;29;20073;-69
2021/12/30 07:09:19;;;;;;;15.13;10.67;;;5.40;91.50;;;;;;4843186;29;20502;-70
2021/12/30 07:11:45;;;;;;;12.90;10.20;;;5.40;91.70;;;;;;4843187;29;20029;-69
2021/12/30 07:14:10;;;;;;;13.17;10.60;;;5.30;91.50;;;;;;4842961;29;20038;-69
2021/12/30 07:16:36;;;;;;;16.20;12.20;;;5.40;91.60;;;;;;4842987;29;20082;-70
2021/12/30 07:19:02;;;;;;;13.70;10.63;;;5.40;91.50;;;;;;4842888;29;20029;-69
2021/12/30 07:21:28;;;;;;;13.17;9.50;;;5.40;91.60;;;;;;4843236;29;20379;-69
2021/12/30 07:23:53;;;;;;;13.47;10.33;;;5.50;91.50;;;;;;4842840;29;20029;-69
2021/12/30 07:26:19;;;;;;;12.43;9.27;;;5.50;91.50;;;;;;4842698;29;20114;-69
2021/12/30 07:28:45;;;;;;;13.40;10.07;;;5.50;91.80;;;;;;4842853;29;20109;-67
2021/12/30 07:31:11;;;;;;;13.90;11.03;;;5.50;91.80;;;;;;4842945;29;20033;-68
2021/12/30 07:33:36;;;;;;;15.87;10.63;;;5.50;91.80;;;;;;4842673;29;20018;-67
2021/12/30 07:36:03;;;;;;;13.90;11.77;;;5.50;92.00;;;;;;4842870;29;20022;-67
2021/12/30 07:38:29;;;;;;;16.37;10.33;;;5.60;92.00;;;;;;4842833;29;20034;-67
2021/12/30 07:40:55;;;;;;;13.63;10.70;;;5.60;92.10;;;;;;4842385;29;20419;-68
2021/12/30 07:43:20;;;;;;;13.10;10.63;;;5.70;92.10;;;;;;4842506;29;20049;-67
2021/12/30 07:45:46;;;;;;;13.30;10.53;;;5.70;92.00;;;;;;4842677;29;20117;-68
2021/12/30 07:48:12;;;;;;;13.60;9.87;;;5.80;92.10;;;;;;4842513;29;20074;-70
2021/12/30 07:50:37;;;;;;;16.83;9.70;;;5.90;91.90;;;;;;4842591;29;20098;-67
2021/12/30 07:53:03;;;;;;;14.93;9.93;;;6.00;91.80;;;;;;4842590;29;20092;-68
2021/12/30 07:55:29;;;;;;;14.37;10.07;;;6.00;91.70;;;;;;4842668;29;20026;-68
2021/12/30 07:57:57;;;;;;;17.10;9.43;;;6.10;91.90;;;;;;4842429;29;20364;-68
2021/12/30 08:00:24;;;;;;;13.27;10.10;;;6.10;91.80;;;;;;4842469;29;20042;-68
2021/12/30 08:02:50;;;;;;;11.57;8.83;;;6.20;92.00;;;;;;4842342;29;20429;-68
2021/12/30 08:05:17;;;;;;;13.50;9.43;;;6.20;92.00;;;;;;4842601;29;20101;-68
2021/12/30 08:07:46;;;;;;;13.47;9.80;;;6.30;92.30;;;;;;4842565;29;20387;-68
2021/12/30 08:10:14;;;;;;;15.27;10.33;;;6.40;92.20;;;;;;4842503;29;20026;-68
2021/12/30 08:12:42;;;;;;;14.23;9.33;;;6.40;92.20;;;;;;4842128;29;20049;-68
2021/12/30 08:15:09;;;;;;;13.17;9.47;;;6.40;92.30;;;;;;4842381;29;20042;-67
2021/12/30 08:17:35;;;;;;;13.57;9.97;;;6.50;92.30;;;;;;4842387;29;20063;-68
2021/12/30 08:20:02;;;;;;;13.00;9.17;;;6.60;92.30;;;;;;4842494;29;20030;-68
2021/12/30 08:22:28;;;;;;;11.93;8.93;;;6.70;92.00;;;;;;4842114;29;20022;-67
2021/12/30 08:24:54;;;;;;;13.70;9.77;;;6.80;92.00;;;;;;4842174;29;20060;-67
2021/12/30 08:27:19;;;;;;;16.17;11.43;;;6.90;91.80;;;;;;4842418;29;20014;-68
2021/12/30 08:29:45;;;;;;;16.80;10.37;;;7.00;91.60;;;;;;4842353;29;20171;-68
2021/12/30 08:32:12;;;;;;;15.53;10.80;;;7.10;91.70;;;;;;4841122;29;20148;-67
2021/12/30 08:34:40;;;;;;;16.67;10.77;;;7.20;91.50;;;;;;4842188;29;20026;-68
2021/12/30 08:37:06;;;;;;;17.20;11.07;;;7.20;91.40;;;;;;4842310;29;20118;-67
2021/12/30 08:39:35;;;;;;;15.10;10.43;;;7.30;91.20;;;;;;4842142;29;20100;-68
2021/12/30 08:42:03;;;;;;;21.40;12.60;;;7.40;91.30;;;;;;4842243;29;20113;-68
2021/12/30 08:44:29;;;;;;;20.30;12.17;;;7.40;91.10;;;;;;4842022;29;20065;-68
2021/12/30 08:46:55;;;;;;;16.20;11.90;;;7.50;90.90;;;;;;4841997;29;20129;-68
2021/12/30 08:49:21;;;;;;;20.17;12.67;;;7.60;90.90;;;;;;4841964;29;20081;-68
2021/12/30 08:51:47;;;;;;;20.77;13.20;;;7.60;90.70;;;;;;4842005;29;20041;-68
2021/12/30 08:54:12;;;;;;;17.70;13.07;;;7.70;90.70;;;;;;4841931;29;20034;-68
2021/12/30 08:56:38;;;;;;;17.73;13.20;;;7.70;90.50;;;;;;4842072;29;20030;-68
2021/12/30 08:59:04;;;;;;;15.17;11.70;;;7.80;90.60;;;;;;4841783;29;20082;-68
2021/12/30 09:01:30;;;;;;;15.40;12.07;;;7.80;90.30;;;;;;4841724;29;20054;-68
2021/12/30 09:03:55;;;;;;;17.03;11.77;;;7.80;90.40;;;;;;4841745;29;20503;-68
2021/12/30 09:06:21;;;;;;;15.03;11.03;;;7.80;90.30;;;;;;4841855;29;20540;-68
2021/12/30 09:08:47;;;;;;;14.67;11.40;;;7.90;90.30;;;;;;4842063;29;20121;-69
2021/12/30 09:11:13;;;;;;;16.33;11.53;;;7.90;90.30;;;;;;4843546;29;20063;-68
2021/12/30 09:13:40;;;;;;;13.80;9.97;;;7.90;90.20;;;;;;4845211;29;20432;-68
2021/12/30 09:16:07;;;;;;;12.87;8.67;;;8.00;90.20;;;;;;4845188;29;20464;-68
2021/12/30 09:18:33;;;;;;;12.47;8.63;;;8.10;90.00;;;;;;4845088;29;20030;-68
2021/12/30 09:20:59;;;;;;;11.13;8.57;;;8.10;89.90;;;;;;4859196;29;20121;-68
2021/12/30 09:23:24;;;;;;;13.97;8.83;;;8.20;89.90;;;;;;4845218;29;20033;-68
2021/12/30 09:25:52;;;;;;;11.97;8.20;;;8.20;89.90;;;;;;4845050;29;20094;-68
2021/12/30 09:28:18;;;;;;;9.87;6.83;;;8.20;89.90;;;;;;4845004;29;20030;-68
2021/12/30 09:30:45;;;;;;;9.10;6.30;;;8.30;89.70;;;;;;4845104;29;20386;-68
2021/12/30 09:33:15;;;;;;;10.87;6.63;;;8.30;89.20;;;;;;4844916;29;20022;-68
2021/12/30 09:35:42;;;;;;;10.27;6.60;;;8.40;89.20;;;;;;4844814;29;20102;-68
2021/12/30 09:38:07;;;;;;;8.97;6.43;;;8.50;88.30;;;;;;4844813;29;20026;-68
2021/12/30 09:40:33;;;;;;;8.33;6.60;;;8.50;88.10;;;;;;4844871;29;20034;-68
2021/12/30 09:43:04;;;;;;;8.17;6.60;;;8.60;87.90;;;;;;4844512;29;20034;-67
2021/12/30 09:45:33;;;;;;;10.57;6.90;;;8.60;87.60;;;;;;4844805;29;20041;-68
2021/12/30 09:48:03;;;;;;;11.70;7.30;;;8.70;87.40;;;;;;4844767;29;20154;-68
2021/12/30 09:50:32;;;;;;;10.97;7.33;;;8.80;87.40;;;;;;4844583;29;20034;-67
2021/12/30 09:52:59;;;;;;;10.63;7.00;;;8.80;87.00;;;;;;4844443;29;20458;-68
2021/12/30 09:55:25;;;;;;;11.23;7.37;;;8.90;86.70;;;;;;4844397;29;20387;-68
2021/12/30 09:57:55;;;;;;;11.80;7.97;;;9.00;86.60;;;;;;4843265;29;20495;-68
2021/12/30 10:00:21;;;;;;;10.30;7.53;;;9.00;86.50;;;;;;4841701;29;20037;-68
2021/12/30 10:02:48;;;;;;;11.43;7.00;;;9.10;86.30;;;;;;4841885;29;20419;-68
2021/12/30 10:05:19;;;;;;;10.17;6.90;;;9.20;86.30;;;;;;4843913;29;20064;-69
2021/12/30 10:07:46;;;;;;;10.17;7.20;;;9.20;86.00;;;;;;4844237;29;20444;-68
2021/12/30 10:10:25;;;;;;;11.40;8.43;;;9.30;85.90;;;;;;4842838;29;20129;-68
2021/12/30 10:12:50;;;;;;;13.53;7.83;;;9.40;85.80;;;;;;4843955;29;20167;-68
2021/12/30 10:15:16;;;;;;;12.03;8.43;;;9.50;85.60;;;;;;4844269;29;20116;-68
2021/12/30 10:17:42;;;;;;;9.97;7.70;;;9.50;85.30;;;;;;4844131;29;20041;-68
2021/12/30 10:20:18;;;;;;;12.10;7.30;;;9.60;85.50;;;;;;4843868;29;20038;-68
2021/12/30 10:22:46;;;;;;;9.10;6.63;;;9.60;85.40;;;;;;4841818;29;20542;-68
2021/12/30 10:25:32;;;;;;;9.47;7.43;;;9.70;85.80;;;;;;4840243;29;20042;-68
2021/12/30 10:28:19;;;;;;;9.93;7.03;;;9.70;85.20;;;;;;4840490;29;20033;-68
2021/12/30 10:30:45;;;;;;;7.97;6.77;;;9.80;84.70;;;;;;4843179;29;20061;-68
2021/12/30 10:33:17;;;;;;;8.60;6.43;;;9.80;84.40;;;;;;4843477;29;20030;-68
2021/12/30 10:35:43;;;;;;;9.17;6.70;;;9.90;84.50;;;;;;4843509;29;20033;-68
2021/12/30 10:38:11;;;;;;;8.53;6.07;;;9.90;83.90;;;;;;4843363;29;20271;-68
2021/12/30 10:40:40;;;;;;;9.30;6.83;;;10.00;83.50;;;;;;4843532;29;20476;-68
2021/12/30 10:43:25;;;;;;;8.57;6.97;;;10.00;83.40;;;;;;4843526;29;20033;-68
2021/12/30 10:46:10;;;;;;;10.80;6.67;;;10.00;83.60;;;;;;4843317;29;20499;-68
2021/12/30 10:49:08;;;;;;;7.50;6.20;;;10.10;83.80;;;;;;4843315;29;20050;-68
2021/12/30 10:51:39;;;;;;;12.43;6.40;;;10.20;83.40;;;;;;4839615;29;20042;-68
2021/12/30 10:54:19;;;;;;;9.00;6.40;;;10.40;82.90;;;;;;4843432;29;20054;-68
2021/12/30 10:56:54;;;;;;;10.53;6.30;;;10.50;82.30;;;;;;4843476;29;20038;-68
2021/12/30 10:59:21;;;;;;;9.35;6.43;;;10.60;81.50;;;;;;4843188;29;20030;-68
2021/12/30 11:01:50;;;;;;;6.82;5.68;;;10.70;81.10;;;;;;4843215;29;20034;-68
2021/12/30 11:04:17;;;;;;;10.27;5.93;;;10.80;80.70;;;;;;4842979;29;20098;-68
2021/12/30 11:06:43;;;;;;;11.63;6.47;;;10.90;79.60;;;;;;4843311;29;20046;-69
2021/12/30 11:09:16;;;;;;;10.20;6.68;;;11.00;79.50;;;;;;4843117;29;20033;-68
2021/12/30 11:11:58;;;;;;;9.40;6.35;;;11.10;79.30;;;;;;4843262;29;20078;-68
2021/12/30 11:14:27;;;;;;;14.32;6.70;;;11.10;78.80;;;;;;4841838;29;20026;-68
2021/12/30 11:16:59;;;;;;;8.23;6.13;;;11.20;78.10;;;;;;4842676;29;20535;-68
2021/12/30 11:19:26;;;;;;;9.45;6.38;;;11.30;78.10;;;;;;4842961;29;20030;-68
2021/12/30 11:21:53;;;;;;;14.00;5.47;;;11.40;78.20;;;;;;4842671;29;20041;-70
2021/12/30 11:24:20;;;;;;;12.20;5.60;;;11.40;77.50;;;;;;4842615;29;20057;-72
2021/12/30 11:26:46;;;;;;;10.00;6.40;;;11.40;76.80;;;;;;4842941;29;20045;-67
2021/12/30 11:29:12;;;;;;;8.45;5.22;;;11.40;76.70;;;;;;4842804;29;20475;-67
2021/12/30 11:31:37;;;;;;;11.85;6.00;;;11.50;76.30;;;;;;4842613;29;20030;-67
2021/12/30 11:34:04;;;;;;;7.00;5.45;;;11.50;76.00;;;;;;4842437;29;20037;-67
2021/12/30 11:36:30;;;;;;;5.82;5.20;;;11.50;76.00;;;;;;4842498;29;20034;-68
2021/12/30 11:39:02;;;;;;;7.85;5.03;;;11.60;76.30;;;;;;4842203;29;20030;-67
2021/12/30 11:41:29;;;;;;;7.20;4.10;;;11.60;76.30;;;;;;4842657;29;20049;-67
2021/12/30 11:43:56;;;;;;;7.70;4.30;;;11.60;76.10;;;;;;4842042;29;20101;-67
2021/12/30 11:46:42;;;;;;;6.00;4.05;;;11.70;75.50;;;;;;4842140;29;20034;-67
2021/12/30 11:49:14;;;;;;;12.27;4.43;;;11.70;75.30;;;;;;4842341;29;20046;-67
2021/12/30 11:51:51;;;;;;;5.10;4.05;;;11.80;74.80;;;;;;4842691;29;20078;-67
2021/12/30 11:54:38;;;;;;;7.68;4.97;;;11.80;75.00;;;;;;4842293;29;20033;-67
2021/12/30 11:57:25;;;;;;;6.85;4.88;;;11.80;75.00;;;;;;4842329;29;20113;-68
2021/12/30 11:59:53;;;;;;;8.25;5.30;;;11.80;74.90;;;;;;4842526;29;20483;-67
2021/12/30 12:02:26;;;;;;;6.80;5.07;;;11.80;75.10;;;;;;4842379;29;20026;-67
2021/12/30 12:04:51;;;;;;;10.57;6.03;;;11.80;75.30;;;;;;4842006;29;20030;-67
2021/12/30 12:07:17;;;;;;;12.25;6.65;;;11.80;75.20;;;;;;4842415;29;20069;-67
2021/12/30 12:09:43;;;;;;;8.52;5.53;;;11.80;75.30;;;;;;4842447;29;20383;-67
2021/12/30 12:12:32;;;;;;;9.07;6.13;;;11.80;75.40;;;;;;4842388;29;20036;-68
2021/12/30 12:15:00;;;;;;;8.68;5.82;;;11.70;76.00;;;;;;4842238;29;20028;-69
2021/12/30 12:17:30;;;;;;;10.40;6.30;;;11.70;76.70;;;;;;4842157;29;20045;-68
2021/12/30 12:19:56;;;;;;;10.10;6.10;;;11.70;76.40;;;;;;4842128;29;20033;-69
2021/12/30 12:22:22;;;;;;;8.02;4.97;;;11.70;76.30;;;;;;4842176;29;20030;-70
2021/12/30 12:25:22;;;;;;;8.82;4.60;;;11.70;76.20;;;;;;4842032;29;20045;-69
2021/12/30 12:27:50;;;;;;;6.85;4.65;;;11.60;76.60;;;;;;4842297;29;20049;-70
2021/12/30 12:30:33;;;;;;;7.30;4.28;;;11.60;76.50;;;;;;4842450;29;20429;-69
2021/12/30 12:33:20;;;;;;;9.88;4.13;;;11.60;76.30;;;;;;4842807;29;20040;-69
2021/12/30 12:35:46;;;;;;;5.97;4.40;;;11.60;76.30;;;;;;4842177;29;20040;-70
2021/12/30 12:38:12;;;;;;;7.75;4.28;;;11.50;76.70;;;;;;4842013;29;20375;-70
2021/12/30 12:40:43;;;;;;;10.45;4.18;;;11.60;77.20;;;;;;4842306;29;20075;-69
2021/12/30 12:43:14;;;;;;;8.43;3.97;;;11.60;77.10;;;;;;4842441;29;20085;-69
2021/12/30 12:45:50;;;;;;;9.95;4.00;;;11.50;76.80;;;;;;4843101;29;20038;-69
2021/12/30 12:48:22;;;;;;;5.65;3.85;;;11.50;76.80;;;;;;4845621;29;20083;-68